sensor_id;sensor_type;location;lat;lon;timestamp;P1;durP1;ratioP1;P2;durP2;ratioP2
39020;SDS011;25188;51.958;5.842;2023-03-29T00:00:07;7.43;;;1.90;;
39020;SDS011;25188;51.958;5.842;2023-03-29T00:02:38;5.33;;;1.90;;
39020;SDS011;25188;51.958;5.842;2023-03-29T00:05:05;4.30;;;1.10;;
39020;SDS011;25188;51.958;5.842;2023-03-29T00:07:31;4.70;;;1.97;;
39020;SDS011;25188;51.958;5.842;2023-03-29T00:09:58;8.17;;;1.87;;
39020;SDS011;25188;51.958;5.842;2023-03-29T00:12:24;7.23;;;2.10;;
39020;SDS011;25188;51.958;5.842;2023-03-29T00:14:50;5.13;;;1.93;;
39020;SDS011;25188;51.958;5.842;2023-03-29T00:17:15;8.97;;;2.53;;
39020;SDS011;25188;51.958;5.842;2023-03-29T00:19:42;5.07;;;2.00;;
39020;SDS011;25188;51.958;5.842;2023-03-29T00:22:08;6.83;;;2.43;;
39020;SDS011;25188;51.958;5.842;2023-03-29T00:24:34;6.40;;;1.90;;
39020;SDS011;25188;51.958;5.842;2023-03-29T00:27:00;4.10;;;1.60;;
39020;SDS011;25188;51.958;5.842;2023-03-29T00:29:26;7.20;;;1.90;;
39020;SDS011;25188;51.958;5.842;2023-03-29T00:31:51;5.97;;;2.03;;
39020;SDS011;25188;51.958;5.842;2023-03-29T00:34:20;5.33;;;2.10;;
39020;SDS011;25188;51.958;5.842;2023-03-29T00:36:47;5.10;;;1.83;;
39020;SDS011;25188;51.958;5.842;2023-03-29T00:39:17;3.63;;;1.57;;
39020;SDS011;25188;51.958;5.842;2023-03-29T00:41:48;4.43;;;1.70;;
39020;SDS011;25188;51.958;5.842;2023-03-29T00:47:22;4.97;;;1.70;;
39020;SDS011;25188;51.958;5.842;2023-03-29T00:50:14;5.17;;;2.07;;
39020;SDS011;25188;51.958;5.842;2023-03-29T00:52:59;5.40;;;1.93;;
39020;SDS011;25188;51.958;5.842;2023-03-29T00:55:29;4.90;;;1.97;;
39020;SDS011;25188;51.958;5.842;2023-03-29T00:58:00;9.77;;;2.17;;
39020;SDS011;25188;51.958;5.842;2023-03-29T01:00:36;4.87;;;1.97;;
39020;SDS011;25188;51.958;5.842;2023-03-29T01:03:07;5.40;;;1.77;;
39020;SDS011;25188;51.958;5.842;2023-03-29T01:05:47;5.63;;;1.83;;
39020;SDS011;25188;51.958;5.842;2023-03-29T01:08:19;5.23;;;2.03;;
39020;SDS011;25188;51.958;5.842;2023-03-29T01:10:54;4.50;;;1.83;;
39020;SDS011;25188;51.958;5.842;2023-03-29T01:13:38;4.63;;;1.70;;
39020;SDS011;25188;51.958;5.842;2023-03-29T01:16:09;3.97;;;1.80;;
39020;SDS011;25188;51.958;5.842;2023-03-29T01:18:36;5.17;;;1.60;;
39020;SDS011;25188;51.958;5.842;2023-03-29T01:21:12;4.47;;;2.07;;
39020;SDS011;25188;51.958;5.842;2023-03-29T01:31:50;6.13;;;2.23;;
39020;SDS011;25188;51.958;5.842;2023-03-29T01:34:30;6.63;;;2.27;;
39020;SDS011;25188;51.958;5.842;2023-03-29T01:37:10;6.40;;;2.20;;
39020;SDS011;25188;51.958;5.842;2023-03-29T01:39:52;5.78;;;2.53;;
39020;SDS011;25188;51.958;5.842;2023-03-29T01:48:01;11.07;;;2.20;;
39020;SDS011;25188;51.958;5.842;2023-03-29T01:50:39;4.73;;;2.37;;
39020;SDS011;25188;51.958;5.842;2023-03-29T01:53:27;4.27;;;1.63;;
39020;SDS011;25188;51.958;5.842;2023-03-29T01:56:06;5.17;;;2.03;;
39020;SDS011;25188;51.958;5.842;2023-03-29T01:58:37;4.60;;;1.90;;
39020;SDS011;25188;51.958;5.842;2023-03-29T02:01:12;5.50;;;2.00;;
39020;SDS011;25188;51.958;5.842;2023-03-29T02:03:43;6.80;;;2.10;;
39020;SDS011;25188;51.958;5.842;2023-03-29T02:06:13;8.73;;;2.50;;
39020;SDS011;25188;51.958;5.842;2023-03-29T02:08:45;3.80;;;1.60;;
39020;SDS011;25188;51.958;5.842;2023-03-29T02:11:11;7.03;;;2.27;;
39020;SDS011;25188;51.958;5.842;2023-03-29T02:13:38;6.83;;;2.57;;
39020;SDS011;25188;51.958;5.842;2023-03-29T02:16:07;6.23;;;2.20;;
39020;SDS011;25188;51.958;5.842;2023-03-29T02:18:36;7.20;;;2.20;;
39020;SDS011;25188;51.958;5.842;2023-03-29T02:21:07;6.00;;;2.00;;
39020;SDS011;25188;51.958;5.842;2023-03-29T02:23:42;6.53;;;2.00;;
39020;SDS011;25188;51.958;5.842;2023-03-29T02:26:09;5.30;;;2.30;;
39020;SDS011;25188;51.958;5.842;2023-03-29T02:28:38;5.80;;;2.13;;
39020;SDS011;25188;51.958;5.842;2023-03-29T02:34:19;8.33;;;2.40;;
39020;SDS011;25188;51.958;5.842;2023-03-29T02:37:02;11.33;;;2.80;;
39020;SDS011;25188;51.958;5.842;2023-03-29T02:39:32;6.37;;;2.77;;
39020;SDS011;25188;51.958;5.842;2023-03-29T02:41:59;8.30;;;2.77;;
39020;SDS011;25188;51.958;5.842;2023-03-29T02:44:28;7.47;;;2.50;;
39020;SDS011;25188;51.958;5.842;2023-03-29T02:46:57;5.30;;;2.17;;
39020;SDS011;25188;51.958;5.842;2023-03-29T02:49:27;7.50;;;2.43;;
39020;SDS011;25188;51.958;5.842;2023-03-29T02:51:53;5.70;;;2.30;;
39020;SDS011;25188;51.958;5.842;2023-03-29T02:54:22;9.57;;;2.50;;
39020;SDS011;25188;51.958;5.842;2023-03-29T02:56:54;4.37;;;2.07;;
39020;SDS011;25188;51.958;5.842;2023-03-29T02:59:22;5.47;;;2.10;;
39020;SDS011;25188;51.958;5.842;2023-03-29T03:01:48;6.53;;;2.27;;
39020;SDS011;25188;51.958;5.842;2023-03-29T03:04:14;4.90;;;2.50;;
39020;SDS011;25188;51.958;5.842;2023-03-29T03:06:42;8.00;;;2.40;;
39020;SDS011;25188;51.958;5.842;2023-03-29T03:09:08;6.17;;;2.70;;
39020;SDS011;25188;51.958;5.842;2023-03-29T03:11:34;5.77;;;2.00;;
39020;SDS011;25188;51.958;5.842;2023-03-29T03:14:00;5.83;;;2.50;;
39020;SDS011;25188;51.958;5.842;2023-03-29T03:16:26;8.27;;;2.57;;
39020;SDS011;25188;51.958;5.842;2023-03-29T03:18:52;5.33;;;2.27;;
39020;SDS011;25188;51.958;5.842;2023-03-29T03:21:18;9.17;;;2.30;;
39020;SDS011;25188;51.958;5.842;2023-03-29T03:23:47;6.70;;;2.50;;
39020;SDS011;25188;51.958;5.842;2023-03-29T03:26:14;4.93;;;2.37;;
39020;SDS011;25188;51.958;5.842;2023-03-29T03:28:41;8.47;;;2.77;;
39020;SDS011;25188;51.958;5.842;2023-03-29T03:31:07;7.60;;;2.70;;
39020;SDS011;25188;51.958;5.842;2023-03-29T03:33:33;8.03;;;2.43;;
39020;SDS011;25188;51.958;5.842;2023-03-29T03:35:59;6.80;;;2.67;;
39020;SDS011;25188;51.958;5.842;2023-03-29T03:38:30;6.23;;;2.47;;
39020;SDS011;25188;51.958;5.842;2023-03-29T03:40:57;9.97;;;2.63;;
39020;SDS011;25188;51.958;5.842;2023-03-29T03:43:23;8.17;;;2.30;;
39020;SDS011;25188;51.958;5.842;2023-03-29T03:45:49;10.93;;;2.70;;
39020;SDS011;25188;51.958;5.842;2023-03-29T03:48:15;7.00;;;2.30;;
39020;SDS011;25188;51.958;5.842;2023-03-29T03:50:52;7.57;;;2.47;;
39020;SDS011;25188;51.958;5.842;2023-03-29T03:53:19;7.70;;;2.50;;
39020;SDS011;25188;51.958;5.842;2023-03-29T03:55:49;5.13;;;2.30;;
39020;SDS011;25188;51.958;5.842;2023-03-29T03:58:16;7.13;;;2.63;;
39020;SDS011;25188;51.958;5.842;2023-03-29T04:00:42;6.90;;;2.20;;
39020;SDS011;25188;51.958;5.842;2023-03-29T04:03:09;5.27;;;2.40;;
39020;SDS011;25188;51.958;5.842;2023-03-29T04:05:38;6.10;;;2.60;;
39020;SDS011;25188;51.958;5.842;2023-03-29T04:08:04;8.47;;;2.63;;
39020;SDS011;25188;51.958;5.842;2023-03-29T04:10:33;7.13;;;2.70;;
39020;SDS011;25188;51.958;5.842;2023-03-29T04:13:00;8.67;;;2.57;;
39020;SDS011;25188;51.958;5.842;2023-03-29T04:15:29;7.70;;;2.60;;
39020;SDS011;25188;51.958;5.842;2023-03-29T04:17:57;9.73;;;2.87;;
39020;SDS011;25188;51.958;5.842;2023-03-29T04:20:24;5.77;;;2.33;;
39020;SDS011;25188;51.958;5.842;2023-03-29T04:22:50;6.20;;;2.60;;
39020;SDS011;25188;51.958;5.842;2023-03-29T04:25:16;5.83;;;2.47;;
39020;SDS011;25188;51.958;5.842;2023-03-29T04:27:43;7.23;;;2.40;;
39020;SDS011;25188;51.958;5.842;2023-03-29T04:30:09;8.27;;;2.53;;
39020;SDS011;25188;51.958;5.842;2023-03-29T04:32:36;5.47;;;2.97;;
39020;SDS011;25188;51.958;5.842;2023-03-29T04:35:02;5.87;;;2.13;;
39020;SDS011;25188;51.958;5.842;2023-03-29T04:37:31;6.80;;;2.83;;
39020;SDS011;25188;51.958;5.842;2023-03-29T04:39:57;7.33;;;2.30;;
39020;SDS011;25188;51.958;5.842;2023-03-29T04:42:28;6.57;;;2.80;;
39020;SDS011;25188;51.958;5.842;2023-03-29T04:44:54;6.80;;;2.80;;
39020;SDS011;25188;51.958;5.842;2023-03-29T04:47:21;5.53;;;2.80;;
39020;SDS011;25188;51.958;5.842;2023-03-29T04:49:46;6.37;;;2.73;;
39020;SDS011;25188;51.958;5.842;2023-03-29T04:52:12;7.23;;;2.63;;
39020;SDS011;25188;51.958;5.842;2023-03-29T04:54:38;6.63;;;2.53;;
39020;SDS011;25188;51.958;5.842;2023-03-29T04:57:04;7.23;;;2.70;;
39020;SDS011;25188;51.958;5.842;2023-03-29T04:59:31;5.23;;;2.47;;
39020;SDS011;25188;51.958;5.842;2023-03-29T05:01:57;5.80;;;2.63;;
39020;SDS011;25188;51.958;5.842;2023-03-29T05:04:23;5.40;;;2.60;;
39020;SDS011;25188;51.958;5.842;2023-03-29T05:06:49;8.27;;;2.43;;
39020;SDS011;25188;51.958;5.842;2023-03-29T05:09:15;8.23;;;2.20;;
39020;SDS011;25188;51.958;5.842;2023-03-29T05:11:41;6.97;;;2.80;;
39020;SDS011;25188;51.958;5.842;2023-03-29T05:14:07;8.07;;;2.33;;
39020;SDS011;25188;51.958;5.842;2023-03-29T05:16:33;6.10;;;2.40;;
39020;SDS011;25188;51.958;5.842;2023-03-29T05:18:59;5.83;;;2.00;;
39020;SDS011;25188;51.958;5.842;2023-03-29T05:21:25;5.70;;;2.17;;
39020;SDS011;25188;51.958;5.842;2023-03-29T05:23:52;5.70;;;2.60;;
39020;SDS011;25188;51.958;5.842;2023-03-29T05:26:18;6.90;;;2.43;;
39020;SDS011;25188;51.958;5.842;2023-03-29T05:28:46;5.30;;;2.70;;
39020;SDS011;25188;51.958;5.842;2023-03-29T05:31:13;8.37;;;2.23;;
39020;SDS011;25188;51.958;5.842;2023-03-29T05:33:38;7.87;;;2.10;;
39020;SDS011;25188;51.958;5.842;2023-03-29T05:36:14;6.03;;;1.93;;
39020;SDS011;25188;51.958;5.842;2023-03-29T05:38:41;6.47;;;1.83;;
39020;SDS011;25188;51.958;5.842;2023-03-29T05:41:09;5.13;;;1.63;;
39020;SDS011;25188;51.958;5.842;2023-03-29T05:43:35;5.90;;;1.90;;
39020;SDS011;25188;51.958;5.842;2023-03-29T05:46:01;8.00;;;2.60;;
39020;SDS011;25188;51.958;5.842;2023-03-29T05:48:27;6.70;;;2.43;;
39020;SDS011;25188;51.958;5.842;2023-03-29T05:50:54;4.73;;;1.60;;
39020;SDS011;25188;51.958;5.842;2023-03-29T05:53:21;7.67;;;2.07;;
39020;SDS011;25188;51.958;5.842;2023-03-29T05:55:48;6.17;;;2.13;;
39020;SDS011;25188;51.958;5.842;2023-03-29T05:58:16;8.57;;;2.17;;
39020;SDS011;25188;51.958;5.842;2023-03-29T06:00:43;6.20;;;2.10;;
39020;SDS011;25188;51.958;5.842;2023-03-29T06:03:13;5.43;;;2.00;;
39020;SDS011;25188;51.958;5.842;2023-03-29T06:05:59;6.70;;;2.27;;
39020;SDS011;25188;51.958;5.842;2023-03-29T06:08:26;4.60;;;1.93;;
39020;SDS011;25188;51.958;5.842;2023-03-29T06:10:56;4.60;;;1.87;;
39020;SDS011;25188;51.958;5.842;2023-03-29T06:13:24;7.30;;;2.37;;
39020;SDS011;25188;51.958;5.842;2023-03-29T06:15:51;4.10;;;1.97;;
39020;SDS011;25188;51.958;5.842;2023-03-29T06:18:17;6.67;;;2.20;;
39020;SDS011;25188;51.958;5.842;2023-03-29T06:20:46;7.90;;;2.70;;
39020;SDS011;25188;51.958;5.842;2023-03-29T06:23:14;4.87;;;2.07;;
39020;SDS011;25188;51.958;5.842;2023-03-29T06:25:39;4.23;;;1.80;;
39020;SDS011;25188;51.958;5.842;2023-03-29T06:28:05;4.33;;;2.20;;
39020;SDS011;25188;51.958;5.842;2023-03-29T06:30:31;5.23;;;2.17;;
39020;SDS011;25188;51.958;5.842;2023-03-29T06:32:58;8.07;;;2.50;;
39020;SDS011;25188;51.958;5.842;2023-03-29T06:35:27;4.33;;;2.07;;
39020;SDS011;25188;51.958;5.842;2023-03-29T06:37:53;5.03;;;2.37;;
39020;SDS011;25188;51.958;5.842;2023-03-29T06:40:19;6.77;;;2.47;;
39020;SDS011;25188;51.958;5.842;2023-03-29T06:42:48;7.17;;;2.40;;
39020;SDS011;25188;51.958;5.842;2023-03-29T06:45:21;9.17;;;2.70;;
39020;SDS011;25188;51.958;5.842;2023-03-29T06:47:51;7.73;;;2.90;;
39020;SDS011;25188;51.958;5.842;2023-03-29T06:50:17;8.43;;;2.90;;
39020;SDS011;25188;51.958;5.842;2023-03-29T06:52:44;6.50;;;2.50;;
39020;SDS011;25188;51.958;5.842;2023-03-29T06:55:11;6.37;;;3.23;;
39020;SDS011;25188;51.958;5.842;2023-03-29T06:57:37;8.17;;;3.50;;
39020;SDS011;25188;51.958;5.842;2023-03-29T07:00:04;8.03;;;2.57;;
39020;SDS011;25188;51.958;5.842;2023-03-29T07:02:38;7.87;;;2.77;;
39020;SDS011;25188;51.958;5.842;2023-03-29T07:05:05;6.57;;;2.83;;
39020;SDS011;25188;51.958;5.842;2023-03-29T07:07:35;7.70;;;2.77;;
39020;SDS011;25188;51.958;5.842;2023-03-29T07:10:22;8.20;;;2.87;;
39020;SDS011;25188;51.958;5.842;2023-03-29T07:12:50;6.87;;;2.83;;
39020;SDS011;25188;51.958;5.842;2023-03-29T07:15:17;6.97;;;2.63;;
39020;SDS011;25188;51.958;5.842;2023-03-29T07:17:44;8.37;;;2.63;;
39020;SDS011;25188;51.958;5.842;2023-03-29T07:20:10;6.10;;;2.73;;
39020;SDS011;25188;51.958;5.842;2023-03-29T07:22:43;7.57;;;2.23;;
39020;SDS011;25188;51.958;5.842;2023-03-29T07:25:10;8.80;;;3.00;;
39020;SDS011;25188;51.958;5.842;2023-03-29T07:27:37;4.07;;;2.33;;
39020;SDS011;25188;51.958;5.842;2023-03-29T07:30:04;7.53;;;3.50;;
39020;SDS011;25188;51.958;5.842;2023-03-29T07:32:35;7.73;;;2.53;;
39020;SDS011;25188;51.958;5.842;2023-03-29T07:35:02;8.77;;;2.93;;
39020;SDS011;25188;51.958;5.842;2023-03-29T07:37:29;9.13;;;3.17;;
39020;SDS011;25188;51.958;5.842;2023-03-29T07:39:56;7.20;;;2.70;;
39020;SDS011;25188;51.958;5.842;2023-03-29T07:42:23;7.27;;;3.10;;
39020;SDS011;25188;51.958;5.842;2023-03-29T07:44:49;5.83;;;2.90;;
39020;SDS011;25188;51.958;5.842;2023-03-29T07:47:15;6.93;;;2.57;;
39020;SDS011;25188;51.958;5.842;2023-03-29T07:49:43;6.93;;;2.47;;
39020;SDS011;25188;51.958;5.842;2023-03-29T07:52:09;7.50;;;2.87;;
39020;SDS011;25188;51.958;5.842;2023-03-29T07:54:36;5.70;;;2.50;;
39020;SDS011;25188;51.958;5.842;2023-03-29T07:57:02;8.87;;;3.50;;
39020;SDS011;25188;51.958;5.842;2023-03-29T07:59:28;7.73;;;3.20;;
39020;SDS011;25188;51.958;5.842;2023-03-29T08:01:54;9.03;;;3.87;;
39020;SDS011;25188;51.958;5.842;2023-03-29T08:04:20;8.17;;;3.50;;
39020;SDS011;25188;51.958;5.842;2023-03-29T08:06:46;9.70;;;3.70;;
39020;SDS011;25188;51.958;5.842;2023-03-29T08:09:12;7.90;;;2.87;;
39020;SDS011;25188;51.958;5.842;2023-03-29T08:11:38;9.40;;;3.87;;
39020;SDS011;25188;51.958;5.842;2023-03-29T08:14:05;9.50;;;4.23;;
39020;SDS011;25188;51.958;5.842;2023-03-29T08:16:31;6.33;;;3.53;;
39020;SDS011;25188;51.958;5.842;2023-03-29T08:18:57;9.10;;;3.60;;
39020;SDS011;25188;51.958;5.842;2023-03-29T08:21:23;8.47;;;3.57;;
39020;SDS011;25188;51.958;5.842;2023-03-29T08:23:49;7.80;;;3.97;;
39020;SDS011;25188;51.958;5.842;2023-03-29T08:26:15;8.17;;;3.93;;
39020;SDS011;25188;51.958;5.842;2023-03-29T08:28:42;8.57;;;3.87;;
39020;SDS011;25188;51.958;5.842;2023-03-29T08:31:09;8.03;;;3.87;;
39020;SDS011;25188;51.958;5.842;2023-03-29T08:33:35;7.03;;;3.67;;
39020;SDS011;25188;51.958;5.842;2023-03-29T08:36:01;9.10;;;4.03;;
39020;SDS011;25188;51.958;5.842;2023-03-29T08:38:27;8.63;;;3.80;;
39020;SDS011;25188;51.958;5.842;2023-03-29T08:40:52;13.00;;;4.57;;
39020;SDS011;25188;51.958;5.842;2023-03-29T08:49:00;6.43;;;3.65;;
39020;SDS011;25188;51.958;5.842;2023-03-29T08:51:32;9.00;;;3.88;;
39020;SDS011;25188;51.958;5.842;2023-03-29T08:54:05;9.52;;;3.72;;
39020;SDS011;25188;51.958;5.842;2023-03-29T08:56:36;10.25;;;4.07;;
39020;SDS011;25188;51.958;5.842;2023-03-29T08:59:04;8.00;;;4.05;;
39020;SDS011;25188;51.958;5.842;2023-03-29T09:01:38;10.07;;;5.00;;
39020;SDS011;25188;51.958;5.842;2023-03-29T09:04:08;9.38;;;4.45;;
39020;SDS011;25188;51.958;5.842;2023-03-29T09:06:40;13.25;;;5.25;;
39020;SDS011;25188;51.958;5.842;2023-03-29T09:09:16;11.68;;;5.38;;
39020;SDS011;25188;51.958;5.842;2023-03-29T09:17:29;10.00;;;4.55;;
39020;SDS011;25188;51.958;5.842;2023-03-29T09:28:21;13.10;;;4.88;;
39020;SDS011;25188;51.958;5.842;2023-03-29T09:31:00;11.77;;;5.18;;
39020;SDS011;25188;51.958;5.842;2023-03-29T09:36:24;15.73;;;6.63;;
39020;SDS011;25188;51.958;5.842;2023-03-29T09:39:12;12.32;;;6.03;;
39020;SDS011;25188;51.958;5.842;2023-03-29T09:41:41;10.73;;;6.13;;
39020;SDS011;25188;51.958;5.842;2023-03-29T09:44:14;17.75;;;7.88;;
39020;SDS011;25188;51.958;5.842;2023-03-29T09:46:44;12.90;;;6.10;;
39020;SDS011;25188;51.958;5.842;2023-03-29T09:49:37;12.10;;;5.88;;
39020;SDS011;25188;51.958;5.842;2023-03-29T09:52:05;12.93;;;6.85;;
39020;SDS011;25188;51.958;5.842;2023-03-29T09:54:36;14.40;;;6.45;;
39020;SDS011;25188;51.958;5.842;2023-03-29T09:57:02;14.52;;;5.93;;
39020;SDS011;25188;51.958;5.842;2023-03-29T09:59:28;11.63;;;6.13;;
39020;SDS011;25188;51.958;5.842;2023-03-29T10:02:03;12.73;;;6.05;;
39020;SDS011;25188;51.958;5.842;2023-03-29T10:04:31;12.32;;;5.57;;
39020;SDS011;25188;51.958;5.842;2023-03-29T10:06:57;10.80;;;5.70;;
39020;SDS011;25188;51.958;5.842;2023-03-29T10:09:24;11.57;;;6.03;;
39020;SDS011;25188;51.958;5.842;2023-03-29T10:11:53;12.13;;;6.28;;
39020;SDS011;25188;51.958;5.842;2023-03-29T10:14:29;14.13;;;6.45;;
39020;SDS011;25188;51.958;5.842;2023-03-29T10:16:59;9.45;;;5.15;;
39020;SDS011;25188;51.958;5.842;2023-03-29T10:19:29;10.70;;;5.85;;
39020;SDS011;25188;51.958;5.842;2023-03-29T10:21:59;8.88;;;5.05;;
39020;SDS011;25188;51.958;5.842;2023-03-29T10:24:28;10.63;;;5.78;;
39020;SDS011;25188;51.958;5.842;2023-03-29T10:26:56;9.55;;;4.88;;
39020;SDS011;25188;51.958;5.842;2023-03-29T10:29:24;9.07;;;5.22;;
39020;SDS011;25188;51.958;5.842;2023-03-29T10:31:50;14.25;;;6.18;;
39020;SDS011;25188;51.958;5.842;2023-03-29T10:34:17;12.23;;;5.65;;
39020;SDS011;25188;51.958;5.842;2023-03-29T10:36:50;9.55;;;5.65;;
39020;SDS011;25188;51.958;5.842;2023-03-29T10:39:23;10.77;;;5.80;;
39020;SDS011;25188;51.958;5.842;2023-03-29T10:41:58;12.15;;;6.38;;
39020;SDS011;25188;51.958;5.842;2023-03-29T10:44:29;11.70;;;5.93;;
39020;SDS011;25188;51.958;5.842;2023-03-29T10:47:05;10.73;;;6.28;;
39020;SDS011;25188;51.958;5.842;2023-03-29T10:49:38;13.02;;;6.60;;
39020;SDS011;25188;51.958;5.842;2023-03-29T10:52:12;12.15;;;6.05;;
39020;SDS011;25188;51.958;5.842;2023-03-29T10:54:38;11.75;;;5.93;;
39020;SDS011;25188;51.958;5.842;2023-03-29T10:57:04;9.15;;;5.40;;
39020;SDS011;25188;51.958;5.842;2023-03-29T11:22:00;13.27;;;5.97;;
39020;SDS011;25188;51.958;5.842;2023-03-29T11:24:42;8.93;;;5.22;;
39020;SDS011;25188;51.958;5.842;2023-03-29T11:27:18;12.38;;;5.88;;
39020;SDS011;25188;51.958;5.842;2023-03-29T11:36:13;12.25;;;5.38;;
39020;SDS011;25188;51.958;5.842;2023-03-29T11:43:19;10.20;;;5.15;;
39020;SDS011;25188;51.958;5.842;2023-03-29T11:48:50;8.82;;;4.97;;
39020;SDS011;25188;51.958;5.842;2023-03-29T11:51:31;10.90;;;4.83;;
39020;SDS011;25188;51.958;5.842;2023-03-29T11:54:08;13.02;;;5.70;;
39020;SDS011;25188;51.958;5.842;2023-03-29T11:56:48;11.63;;;5.75;;
39020;SDS011;25188;51.958;5.842;2023-03-29T11:59:21;9.45;;;5.13;;
39020;SDS011;25188;51.958;5.842;2023-03-29T12:04:41;10.07;;;5.38;;
39020;SDS011;25188;51.958;5.842;2023-03-29T12:07:14;9.15;;;5.03;;
39020;SDS011;25188;51.958;5.842;2023-03-29T12:10:05;11.30;;;5.00;;
39020;SDS011;25188;51.958;5.842;2023-03-29T12:12:46;9.25;;;4.93;;
39020;SDS011;25188;51.958;5.842;2023-03-29T12:15:37;10.25;;;5.32;;
39020;SDS011;25188;51.958;5.842;2023-03-29T12:18:21;10.80;;;6.05;;
39020;SDS011;25188;51.958;5.842;2023-03-29T12:20:55;10.35;;;5.57;;
39020;SDS011;25188;51.958;5.842;2023-03-29T12:23:28;7.95;;;4.18;;
39020;SDS011;25188;51.958;5.842;2023-03-29T12:31:51;7.80;;;3.78;;
39020;SDS011;25188;51.958;5.842;2023-03-29T12:40:01;11.18;;;5.38;;
39020;SDS011;25188;51.958;5.842;2023-03-29T12:45:43;11.43;;;5.68;;
39020;SDS011;25188;51.958;5.842;2023-03-29T12:48:14;9.32;;;5.65;;
39020;SDS011;25188;51.958;5.842;2023-03-29T12:50:48;10.07;;;5.60;;
39020;SDS011;25188;51.958;5.842;2023-03-29T12:53:34;10.95;;;5.63;;
39020;SDS011;25188;51.958;5.842;2023-03-29T13:01:05;9.00;;;4.82;;
39020;SDS011;25188;51.958;5.842;2023-03-29T13:03:48;8.85;;;5.63;;
39020;SDS011;25188;51.958;5.842;2023-03-29T13:06:29;8.82;;;5.55;;
39020;SDS011;25188;51.958;5.842;2023-03-29T13:09:25;9.68;;;5.78;;
39020;SDS011;25188;51.958;5.842;2023-03-29T13:14:44;8.60;;;5.22;;
39020;SDS011;25188;51.958;5.842;2023-03-29T13:17:24;11.20;;;5.45;;
39020;SDS011;25188;51.958;5.842;2023-03-29T13:20:10;8.63;;;4.80;;
39020;SDS011;25188;51.958;5.842;2023-03-29T13:23:21;10.05;;;4.78;;
39020;SDS011;25188;51.958;5.842;2023-03-29T13:25:42;7.55;;;4.40;;
39020;SDS011;25188;51.958;5.842;2023-03-29T13:33:56;10.77;;;4.43;;
39020;SDS011;25188;51.958;5.842;2023-03-29T13:39:14;7.38;;;3.65;;
39020;SDS011;25188;51.958;5.842;2023-03-29T13:41:49;9.05;;;4.50;;
39020;SDS011;25188;51.958;5.842;2023-03-29T13:47:26;7.75;;;4.35;;
39020;SDS011;25188;51.958;5.842;2023-03-29T13:50:03;8.77;;;4.07;;
39020;SDS011;25188;51.958;5.842;2023-03-29T13:52:41;7.28;;;3.92;;
39020;SDS011;25188;51.958;5.842;2023-03-29T13:55:25;8.35;;;3.80;;
39020;SDS011;25188;51.958;5.842;2023-03-29T13:57:56;7.80;;;4.28;;
39020;SDS011;25188;51.958;5.842;2023-03-29T14:00:26;10.25;;;3.80;;
39020;SDS011;25188;51.958;5.842;2023-03-29T14:02:56;6.90;;;3.45;;
39020;SDS011;25188;51.958;5.842;2023-03-29T14:05:35;9.45;;;4.70;;
39020;SDS011;25188;51.958;5.842;2023-03-29T14:10:50;8.65;;;4.35;;
39020;SDS011;25188;51.958;5.842;2023-03-29T14:13:18;8.82;;;4.00;;
39020;SDS011;25188;51.958;5.842;2023-03-29T14:15:56;11.57;;;4.88;;
39020;SDS011;25188;51.958;5.842;2023-03-29T14:18:32;9.60;;;4.93;;
39020;SDS011;25188;51.958;5.842;2023-03-29T14:21:03;9.48;;;4.97;;
39020;SDS011;25188;51.958;5.842;2023-03-29T14:23:31;8.98;;;4.25;;
39020;SDS011;25188;51.958;5.842;2023-03-29T14:28:34;7.25;;;4.00;;
39020;SDS011;25188;51.958;5.842;2023-03-29T14:31:00;13.43;;;4.50;;
39020;SDS011;25188;51.958;5.842;2023-03-29T14:33:30;9.02;;;4.82;;
39020;SDS011;25188;51.958;5.842;2023-03-29T14:36:02;9.70;;;4.93;;
39020;SDS011;25188;51.958;5.842;2023-03-29T14:38:29;10.57;;;4.40;;
39020;SDS011;25188;51.958;5.842;2023-03-29T14:40:59;12.93;;;4.47;;
39020;SDS011;25188;51.958;5.842;2023-03-29T14:43:26;8.70;;;4.43;;
39020;SDS011;25188;51.958;5.842;2023-03-29T14:45:56;9.18;;;4.13;;
39020;SDS011;25188;51.958;5.842;2023-03-29T14:48:23;7.68;;;4.13;;
39020;SDS011;25188;51.958;5.842;2023-03-29T14:50:49;8.45;;;4.30;;
39020;SDS011;25188;51.958;5.842;2023-03-29T14:53:24;9.10;;;4.70;;
39020;SDS011;25188;51.958;5.842;2023-03-29T14:55:53;7.72;;;3.92;;
39020;SDS011;25188;51.958;5.842;2023-03-29T15:01:05;7.13;;;3.80;;
39020;SDS011;25188;51.958;5.842;2023-03-29T15:06:16;10.88;;;4.25;;
39020;SDS011;25188;51.958;5.842;2023-03-29T15:08:42;10.15;;;4.63;;
39020;SDS011;25188;51.958;5.842;2023-03-29T15:11:10;8.27;;;3.83;;
39020;SDS011;25188;51.958;5.842;2023-03-29T15:14:05;11.02;;;3.72;;
39020;SDS011;25188;51.958;5.842;2023-03-29T15:16:39;6.28;;;3.58;;
39020;SDS011;25188;51.958;5.842;2023-03-29T15:19:11;5.35;;;2.72;;
39020;SDS011;25188;51.958;5.842;2023-03-29T15:21:41;6.30;;;3.33;;
39020;SDS011;25188;51.958;5.842;2023-03-29T15:24:27;7.35;;;2.53;;
39020;SDS011;25188;51.958;5.842;2023-03-29T15:26:59;6.30;;;2.05;;
39020;SDS011;25188;51.958;5.842;2023-03-29T15:29:36;5.25;;;2.03;;
39020;SDS011;25188;51.958;5.842;2023-03-29T15:32:06;7.43;;;2.22;;
39020;SDS011;25188;51.958;5.842;2023-03-29T15:34:33;4.82;;;2.03;;
39020;SDS011;25188;51.958;5.842;2023-03-29T15:36:59;4.22;;;1.98;;
39020;SDS011;25188;51.958;5.842;2023-03-29T15:39:26;4.70;;;2.25;;
39020;SDS011;25188;51.958;5.842;2023-03-29T15:41:53;4.72;;;1.85;;
39020;SDS011;25188;51.958;5.842;2023-03-29T15:44:27;5.15;;;1.80;;
39020;SDS011;25188;51.958;5.842;2023-03-29T15:46:56;6.80;;;2.30;;
39020;SDS011;25188;51.958;5.842;2023-03-29T15:49:23;4.28;;;1.73;;
39020;SDS011;25188;51.958;5.842;2023-03-29T15:51:50;4.53;;;2.10;;
39020;SDS011;25188;51.958;5.842;2023-03-29T15:54:18;4.35;;;1.73;;
39020;SDS011;25188;51.958;5.842;2023-03-29T15:56:50;6.13;;;1.50;;
39020;SDS011;25188;51.958;5.842;2023-03-29T15:59:19;5.30;;;2.38;;
39020;SDS011;25188;51.958;5.842;2023-03-29T16:01:45;4.63;;;1.60;;
39020;SDS011;25188;51.958;5.842;2023-03-29T16:04:13;5.07;;;1.63;;
39020;SDS011;25188;51.958;5.842;2023-03-29T16:06:44;3.25;;;1.42;;
39020;SDS011;25188;51.958;5.842;2023-03-29T16:09:12;4.30;;;2.05;;
39020;SDS011;25188;51.958;5.842;2023-03-29T16:11:38;8.88;;;2.72;;
39020;SDS011;25188;51.958;5.842;2023-03-29T16:14:05;6.10;;;1.95;;
39020;SDS011;25188;51.958;5.842;2023-03-29T16:16:43;6.32;;;2.45;;
39020;SDS011;25188;51.958;5.842;2023-03-29T16:19:08;6.00;;;2.17;;
39020;SDS011;25188;51.958;5.842;2023-03-29T16:21:34;5.35;;;2.13;;
39020;SDS011;25188;51.958;5.842;2023-03-29T16:24:00;5.03;;;2.10;;
39020;SDS011;25188;51.958;5.842;2023-03-29T16:26:27;4.32;;;1.75;;
39020;SDS011;25188;51.958;5.842;2023-03-29T16:28:54;5.05;;;2.15;;
39020;SDS011;25188;51.958;5.842;2023-03-29T16:31:20;6.40;;;2.13;;
39020;SDS011;25188;51.958;5.842;2023-03-29T16:33:47;3.88;;;1.83;;
39020;SDS011;25188;51.958;5.842;2023-03-29T16:36:13;4.68;;;1.95;;
39020;SDS011;25188;51.958;5.842;2023-03-29T16:38:39;4.75;;;1.92;;
39020;SDS011;25188;51.958;5.842;2023-03-29T16:41:04;6.40;;;2.40;;
39020;SDS011;25188;51.958;5.842;2023-03-29T16:43:31;5.78;;;2.33;;
39020;SDS011;25188;51.958;5.842;2023-03-29T16:45:57;5.88;;;2.13;;
39020;SDS011;25188;51.958;5.842;2023-03-29T16:48:22;3.95;;;1.90;;
39020;SDS011;25188;51.958;5.842;2023-03-29T16:50:48;5.53;;;2.38;;
39020;SDS011;25188;51.958;5.842;2023-03-29T16:53:14;5.50;;;2.10;;
39020;SDS011;25188;51.958;5.842;2023-03-29T16:55:40;6.93;;;2.05;;
39020;SDS011;25188;51.958;5.842;2023-03-29T16:58:06;6.38;;;2.15;;
39020;SDS011;25188;51.958;5.842;2023-03-29T17:00:32;5.20;;;2.20;;
39020;SDS011;25188;51.958;5.842;2023-03-29T17:02:58;4.68;;;2.15;;
39020;SDS011;25188;51.958;5.842;2023-03-29T17:05:25;5.07;;;2.38;;
39020;SDS011;25188;51.958;5.842;2023-03-29T17:07:51;4.05;;;2.20;;